createdAt,value
2023-02-22T00:02:14.033Z,14.90
2023-02-22T00:05:00.492Z,13.80
2023-02-22T00:07:47.777Z,11.60
2023-02-22T00:10:38.393Z,13.60
2023-02-22T00:13:25.301Z,14.50
2023-02-22T00:16:21.224Z,13.60
2023-02-22T00:19:08.673Z,16.40
2023-02-22T00:21:55.293Z,13.30
2023-02-22T00:24:41.767Z,13.10
2023-02-22T00:27:28.458Z,15.70
2023-02-22T00:30:21.984Z,14.40
2023-02-22T00:33:08.782Z,13.60
2023-02-22T00:35:55.499Z,13.80
2023-02-22T00:38:42.701Z,11.10
2023-02-22T00:41:29.689Z,14.10
2023-02-22T00:44:16.146Z,13.10
2023-02-22T00:47:04.777Z,13.90
2023-02-22T00:49:51.203Z,11.80
2023-02-22T00:52:38.669Z,12.90
2023-02-22T00:55:28.374Z,12.00
2023-02-22T00:58:14.936Z,9.90
2023-02-22T01:01:02.020Z,13.10
2023-02-22T01:03:48.617Z,11.00
2023-02-22T01:06:35.741Z,12.70
2023-02-22T01:09:22.700Z,14.40
2023-02-22T01:12:09.216Z,23.00
2023-02-22T01:14:59.362Z,24.60
2023-02-22T01:17:46.164Z,24.90
2023-02-22T01:20:33.285Z,19.00
2023-02-22T01:23:19.866Z,18.80
2023-02-22T01:26:06.737Z,19.00
2023-02-22T01:28:53.018Z,18.70
2023-02-22T01:31:39.516Z,18.50
2023-02-22T01:34:26.142Z,21.60
2023-02-22T01:37:12.700Z,18.90
2023-02-22T01:39:59.099Z,13.30
2023-02-22T01:42:47.104Z,13.60
2023-02-22T01:45:33.526Z,15.80
2023-02-22T01:48:37.164Z,11.90
2023-02-22T01:51:29.449Z,14.20
2023-02-22T01:54:18.863Z,14.20
2023-02-22T01:57:12.279Z,14.50
2023-02-22T02:00:11.389Z,25.50
2023-02-22T02:03:07.551Z,14.20
2023-02-22T02:05:58.737Z,14.70
2023-02-22T02:09:01.207Z,16.30
2023-02-22T02:11:49.628Z,16.40
2023-02-22T02:14:40.517Z,12.60
2023-02-22T02:17:27.115Z,11.70
2023-02-22T02:20:22.594Z,10.70
2023-02-22T02:23:47.010Z,12.60
2023-02-22T02:27:11.470Z,11.70
2023-02-22T02:30:18.347Z,12.00
2023-02-22T02:33:26.747Z,11.40
2023-02-22T02:36:26.135Z,13.50
2023-02-22T02:39:19.478Z,11.60
2023-02-22T02:42:11.700Z,9.80
2023-02-22T02:45:10.009Z,12.60
2023-02-22T02:47:59.814Z,10.50
2023-02-22T02:50:49.553Z,10.80
2023-02-22T02:53:42.926Z,11.50
2023-02-22T02:56:31.089Z,10.50
2023-02-22T02:59:43.874Z,12.10
2023-02-22T03:02:51.578Z,15.60
2023-02-22T03:05:47.311Z,14.90
2023-02-22T03:09:01.698Z,11.70
2023-02-22T03:12:19.367Z,11.70
2023-02-22T03:15:06.099Z,11.30
2023-02-22T03:18:17.819Z,13.00
2023-02-22T03:21:22.612Z,12.20
2023-02-22T03:24:23.109Z,12.20
2023-02-22T03:27:21.742Z,10.70
2023-02-22T03:30:12.283Z,10.10
2023-02-22T03:33:08.997Z,8.70
2023-02-22T03:36:08.584Z,8.20
2023-02-22T03:38:58.951Z,12.50
2023-02-22T03:41:49.294Z,10.40
2023-02-22T03:44:40.291Z,9.30
2023-02-22T03:47:38.424Z,8.80
2023-02-22T03:50:35.517Z,8.30
2023-02-22T03:53:23.259Z,8.30
2023-02-22T03:56:15.094Z,9.40
2023-02-22T03:59:08.206Z,9.00
2023-02-22T04:01:55.649Z,7.00
2023-02-22T04:04:42.259Z,7.20
2023-02-22T04:07:29.067Z,5.30
2023-02-22T04:10:17.033Z,3.50
2023-02-22T04:13:04.323Z,3.70
2023-02-22T04:15:51.052Z,3.50
2023-02-22T04:18:37.546Z,3.00
2023-02-22T04:21:24.293Z,2.70
2023-02-22T04:24:11.774Z,2.80
2023-02-22T04:26:57.966Z,3.30
2023-02-22T04:29:44.575Z,3.60
2023-02-22T04:32:31.018Z,3.20
2023-02-22T04:35:17.759Z,2.90
2023-02-22T04:38:05.151Z,4.20
2023-02-22T04:40:52.591Z,4.20
2023-02-22T04:43:39.038Z,2.70
2023-02-22T04:46:25.761Z,2.80
2023-02-22T04:49:12.638Z,3.20
2023-02-22T04:51:58.948Z,4.10
2023-02-22T04:54:45.557Z,3.30
2023-02-22T04:57:32.563Z,3.30
2023-02-22T05:00:21.796Z,3.60
2023-02-22T05:03:08.863Z,3.70
2023-02-22T05:05:56.489Z,3.70
2023-02-22T05:08:42.802Z,4.70
2023-02-22T05:11:29.178Z,5.80
2023-02-22T05:14:15.971Z,5.00
2023-02-22T05:17:03.857Z,4.60
2023-02-22T05:19:50.365Z,4.80
2023-02-22T05:22:36.891Z,6.00
2023-02-22T05:25:59.355Z,3.90
2023-02-22T05:28:44.583Z,5.20
2023-02-22T05:31:29.985Z,6.00
2023-02-22T05:34:15.831Z,5.00
2023-02-22T05:37:02.726Z,5.20
2023-02-22T05:39:47.705Z,5.90
2023-02-22T05:42:33.089Z,5.30
2023-02-22T05:45:21.026Z,5.10
2023-02-22T05:48:06.144Z,7.40
2023-02-22T05:50:51.304Z,6.00
2023-02-22T05:53:36.929Z,6.00
2023-02-22T05:56:24.213Z,5.80
2023-02-22T05:59:09.319Z,7.30
2023-02-22T06:01:54.771Z,6.10
2023-02-22T06:04:40.064Z,7.60
2023-02-22T06:07:25.218Z,5.70
2023-02-22T06:10:13.245Z,6.00
2023-02-22T06:12:59.589Z,9.30
2023-02-22T06:15:45.019Z,7.00
2023-02-22T06:18:30.576Z,6.60
2023-02-22T06:21:16.974Z,6.10
2023-02-22T06:24:03.770Z,8.70
2023-02-22T06:27:01.064Z,6.80
2023-02-22T06:29:46.900Z,6.80
2023-02-22T06:32:32.220Z,6.70
2023-02-22T06:35:18.314Z,6.90
2023-02-22T06:38:03.570Z,6.50
2023-02-22T06:40:48.842Z,6.20
2023-02-22T06:43:34.319Z,6.60
2023-02-22T06:46:20.524Z,6.20
2023-02-22T06:49:05.709Z,6.90
2023-02-22T06:51:51.104Z,6.00
2023-02-22T06:54:38.107Z,6.80
2023-02-22T06:57:23.176Z,5.80
2023-02-22T07:00:08.675Z,7.30
2023-02-22T07:02:54.241Z,6.10
2023-02-22T07:05:39.392Z,6.10
2023-02-22T07:08:24.764Z,6.30
2023-02-22T07:11:10.082Z,6.50
2023-02-22T07:13:55.470Z,5.50
2023-02-22T07:16:42.067Z,4.90
2023-02-22T07:19:27.277Z,5.50
2023-02-22T07:22:12.480Z,5.10
2023-02-22T07:24:57.769Z,4.50
2023-02-22T07:27:43.849Z,4.60
2023-02-22T07:30:33.344Z,4.70
2023-02-22T07:33:18.896Z,4.60
2023-02-22T07:36:05.596Z,4.20
2023-02-22T07:38:50.835Z,4.00
2023-02-22T07:41:36.239Z,4.20
2023-02-22T07:44:21.250Z,5.70
2023-02-22T07:47:07.028Z,8.50
2023-02-22T07:49:52.594Z,4.00
2023-02-22T07:52:37.974Z,4.30
2023-02-22T07:55:28.242Z,5.20
2023-02-22T07:58:14.912Z,4.80
2023-02-22T08:01:03.051Z,5.10
2023-02-22T08:03:48.530Z,5.70
2023-02-22T08:06:33.764Z,4.40
2023-02-22T08:09:18.763Z,5.80
2023-02-22T08:12:04.138Z,5.00
2023-02-22T08:14:49.282Z,5.80
2023-02-22T08:17:34.833Z,4.40
2023-02-22T08:20:20.874Z,4.90
2023-02-22T08:23:07.086Z,6.10
2023-02-22T08:25:53.496Z,6.40
2023-02-22T08:28:38.442Z,6.90
2023-02-22T08:31:23.432Z,7.80
2023-02-22T08:34:09.955Z,5.00
2023-02-22T08:36:55.184Z,3.60
2023-02-22T08:39:40.570Z,4.00
2023-02-22T08:42:25.843Z,3.50
2023-02-22T08:45:12.706Z,2.90
2023-02-22T08:47:58.729Z,3.00
2023-02-22T08:50:44.090Z,3.70
2023-02-22T08:53:29.530Z,3.10
2023-02-22T08:56:15.930Z,4.00
2023-02-22T08:59:01.123Z,3.00
2023-02-22T09:01:46.262Z,3.30
2023-02-22T09:04:31.615Z,3.20
2023-02-22T09:07:16.922Z,4.10
2023-02-22T09:10:02.399Z,4.30
2023-02-22T09:12:47.486Z,6.60
2023-02-22T09:15:35.283Z,5.30
2023-02-22T09:18:20.495Z,3.60
2023-02-22T09:21:05.907Z,4.20
2023-02-22T09:23:53.994Z,6.90
2023-02-22T09:26:38.925Z,4.00
2023-02-22T09:29:25.812Z,5.40
2023-02-22T09:32:11.202Z,5.60
2023-02-22T09:34:56.840Z,6.20
2023-02-22T09:37:44.304Z,6.60
2023-02-22T09:40:32.086Z,3.10
2023-02-22T09:43:19.974Z,3.70
2023-02-22T09:46:20.531Z,3.40
2023-02-22T09:49:21.257Z,4.10
2023-02-22T09:52:21.416Z,3.90
2023-02-22T09:55:35.679Z,3.10
2023-02-22T09:58:34.925Z,7.00
2023-02-22T10:01:39.305Z,3.80
2023-02-22T10:04:33.946Z,4.40
2023-02-22T10:07:44.387Z,4.10
2023-02-22T10:10:33.143Z,7.10
2023-02-22T10:13:27.238Z,6.30
2023-02-22T10:16:26.449Z,6.50
2023-02-22T10:19:20.347Z,6.60
2023-02-22T10:22:20.615Z,6.80
2023-02-22T10:25:25.620Z,7.80
2023-02-22T10:28:24.071Z,6.80
2023-02-22T10:31:21.170Z,6.40
2023-02-22T10:34:14.890Z,6.80
2023-02-22T10:37:13.414Z,7.60
2023-02-22T10:40:22.648Z,9.80
2023-02-22T10:43:10.451Z,7.10
2023-02-22T10:46:02.837Z,8.00
2023-02-22T10:48:52.665Z,5.70
2023-02-22T10:51:38.758Z,4.70
2023-02-22T10:54:35.739Z,5.50
2023-02-22T10:57:31.723Z,5.60
2023-02-22T11:00:32.516Z,5.80
2023-02-22T11:03:23.009Z,5.60
2023-02-22T11:06:21.154Z,5.60
2023-02-22T11:09:09.631Z,5.60
2023-02-22T11:12:09.853Z,6.50
2023-02-22T11:14:55.688Z,5.70
2023-02-22T11:17:41.723Z,6.20
2023-02-22T11:20:33.743Z,5.90
2023-02-22T11:23:22.795Z,7.30
2023-02-22T11:26:15.054Z,7.70
2023-02-22T11:29:10.703Z,8.20
2023-02-22T11:31:56.088Z,7.40
2023-02-22T11:34:44.602Z,7.10
2023-02-22T11:37:34.068Z,8.20
2023-02-22T11:40:22.298Z,6.90
2023-02-22T11:43:18.888Z,6.90
2023-02-22T11:46:26.470Z,5.40
2023-02-22T11:49:16.549Z,5.90
2023-02-22T11:52:07.532Z,6.60
2023-02-22T11:55:05.935Z,8.40
2023-02-22T11:58:47.660Z,8.00
2023-02-22T12:01:59.313Z,6.20
2023-02-22T12:04:59.614Z,6.60
2023-02-22T12:07:47.962Z,7.20
2023-02-22T12:10:43.061Z,6.30
2023-02-22T12:13:54.206Z,6.70
2023-02-22T12:17:01.871Z,7.00
2023-02-22T12:19:58.111Z,8.40
2023-02-22T12:23:12.082Z,5.40
2023-02-22T12:26:11.816Z,6.70
2023-02-22T12:29:12.215Z,5.90
2023-02-22T12:32:06.505Z,5.30
2023-02-22T12:34:56.912Z,6.10
2023-02-22T12:37:45.041Z,5.30
2023-02-22T12:40:53.202Z,7.40
2023-02-22T12:43:41.059Z,6.30
2023-02-22T12:46:36.519Z,6.00
2023-02-22T12:49:39.287Z,6.70
2023-02-22T12:52:36.826Z,6.50
2023-02-22T12:55:32.726Z,5.10
2023-02-22T12:58:39.043Z,6.50
2023-02-22T13:01:30.236Z,5.30
2023-02-22T13:04:20.851Z,5.20
2023-02-22T13:07:31.231Z,5.70
2023-02-22T13:10:25.824Z,5.00
2023-02-22T13:13:31.322Z,5.70
2023-02-22T13:16:45.317Z,5.10
2023-02-22T13:19:37.079Z,5.60
2023-02-22T13:22:49.364Z,7.10
2023-02-22T13:26:13.077Z,7.30
2023-02-22T13:29:08.071Z,6.60
2023-02-22T13:32:09.131Z,5.20
2023-02-22T13:35:17.593Z,6.00
2023-02-22T13:38:44.833Z,6.40
2023-02-22T13:41:54.616Z,6.10
2023-02-22T13:45:17.102Z,6.20
2023-02-22T13:48:27.490Z,6.30
2023-02-22T13:51:23.131Z,7.80
2023-02-22T13:54:17.592Z,7.60
2023-02-22T13:57:16.848Z,7.20
2023-02-22T14:00:23.136Z,6.00
2023-02-22T14:03:14.182Z,5.10
2023-02-22T14:06:00.850Z,6.70
2023-02-22T14:08:46.295Z,5.80
2023-02-22T14:11:31.554Z,5.90
2023-02-22T14:14:18.492Z,5.60
2023-02-22T14:17:22.122Z,4.80
2023-02-22T14:20:19.045Z,5.10
2023-02-22T14:23:27.426Z,5.40
2023-02-22T14:26:12.522Z,5.00
2023-02-22T14:29:07.269Z,6.10
2023-02-22T14:32:01.816Z,5.40
2023-02-22T14:34:57.375Z,5.60
2023-02-22T14:37:48.550Z,6.90
2023-02-22T14:40:37.112Z,7.60
2023-02-22T14:43:24.852Z,5.30
2023-02-22T14:46:18.048Z,6.30
2023-02-22T14:49:09.410Z,5.70
2023-02-22T14:52:03.213Z,8.90
2023-02-22T14:55:12.834Z,6.90
2023-02-22T14:58:00.991Z,7.00
2023-02-22T15:00:56.323Z,7.60
2023-02-22T15:03:42.642Z,6.30
2023-02-22T15:06:30.743Z,5.90
2023-02-22T15:09:28.933Z,4.80
2023-02-22T15:12:30.137Z,4.10
2023-02-22T15:15:22.026Z,6.30
2023-02-22T15:18:17.952Z,5.60
2023-02-22T15:21:25.316Z,5.80
2023-02-22T15:24:22.262Z,5.20
2023-02-22T15:27:15.145Z,5.90
2023-02-22T15:30:05.168Z,8.10
2023-02-22T15:33:03.579Z,6.80
2023-02-22T15:35:57.111Z,7.20
2023-02-22T15:38:51.458Z,7.20
2023-02-22T15:41:36.476Z,7.90
2023-02-22T15:44:23.914Z,16.50
2023-02-22T15:47:15.957Z,6.50
2023-02-22T15:50:25.202Z,6.90
2023-02-22T15:53:20.040Z,7.00
2023-02-22T15:56:37.503Z,6.10
2023-02-22T15:59:29.664Z,6.10
2023-02-22T16:02:29.227Z,7.80
2023-02-22T16:05:17.743Z,8.90
2023-02-22T16:08:08.399Z,7.40
2023-02-22T16:11:12.859Z,6.90
2023-02-22T16:14:23.003Z,8.10
2023-02-22T16:17:30.001Z,8.40
2023-02-22T16:20:17.962Z,8.10
2023-02-22T16:23:22.663Z,7.60
2023-02-22T16:26:21.606Z,8.40
2023-02-22T16:29:08.417Z,11.20
2023-02-22T16:31:53.889Z,10.00
2023-02-22T16:34:39.422Z,11.90
2023-02-22T16:37:27.886Z,12.10
2023-02-22T16:40:22.872Z,9.90
2023-02-22T16:43:15.750Z,11.40
2023-02-22T16:46:02.016Z,11.20
2023-02-22T16:48:48.237Z,11.50
2023-02-22T16:51:40.766Z,12.80
2023-02-22T16:54:29.071Z,11.80
2023-02-22T16:57:19.114Z,11.70
2023-02-22T17:00:12.494Z,11.40
2023-02-22T17:03:05.370Z,9.50
2023-02-22T17:05:50.847Z,11.10
2023-02-22T17:08:38.076Z,9.50
2023-02-22T17:11:23.607Z,8.60
2023-02-22T17:14:11.939Z,8.70
2023-02-22T17:16:58.067Z,9.60
2023-02-22T17:19:43.539Z,10.10
2023-02-22T17:22:28.565Z,7.70
2023-02-22T17:25:21.178Z,7.70
2023-02-22T17:28:07.348Z,7.10
2023-02-22T17:30:54.604Z,8.00
2023-02-22T17:33:40.015Z,8.50
2023-02-22T17:36:27.407Z,8.30
2023-02-22T17:39:12.808Z,11.80
2023-02-22T17:41:59.018Z,12.30
2023-02-22T17:44:44.600Z,10.70
2023-02-22T17:47:30.057Z,11.80
2023-02-22T17:50:16.037Z,12.30
2023-02-22T17:53:02.507Z,12.60
2023-02-22T17:55:48.267Z,13.30
2023-02-22T17:59:23.347Z,12.20
2023-02-22T18:02:09.862Z,12.20
2023-02-22T18:04:55.408Z,11.10
2023-02-22T18:07:40.383Z,12.30
2023-02-22T18:10:25.882Z,13.30
2023-02-22T18:13:17.112Z,12.50
2023-02-22T18:16:04.932Z,13.00
2023-02-22T18:18:55.226Z,13.90
2023-02-22T18:21:43.450Z,13.80
2023-02-22T18:24:33.672Z,15.00
2023-02-22T18:27:18.987Z,13.10
2023-02-22T18:30:05.251Z,14.30
2023-02-22T18:32:50.451Z,14.60
2023-02-22T18:35:35.421Z,14.90
2023-02-22T18:38:24.875Z,12.80
2023-02-22T18:41:12.676Z,14.00
2023-02-22T18:43:59.723Z,13.80
2023-02-22T18:46:44.769Z,13.50
2023-02-22T18:49:29.808Z,14.10
2023-02-22T18:52:15.338Z,13.90
2023-02-22T18:55:00.721Z,15.10
2023-02-22T18:57:46.981Z,16.80
2023-02-22T19:00:34.450Z,16.20
2023-02-22T19:03:19.605Z,21.00
2023-02-22T19:06:08.054Z,15.00
2023-02-22T19:08:53.390Z,16.10
2023-02-22T19:11:44.068Z,14.40
2023-02-22T19:14:29.079Z,14.60
2023-02-22T19:17:20.197Z,13.10
2023-02-22T19:20:09.935Z,13.90
2023-02-22T19:22:55.244Z,14.10
2023-02-22T19:25:40.713Z,14.80
2023-02-22T19:28:33.281Z,14.00
2023-02-22T19:31:31.525Z,12.50
2023-02-22T19:34:23.227Z,12.10
2023-02-22T19:37:09.287Z,12.20
2023-02-22T19:39:54.555Z,12.50
2023-02-22T19:42:40.298Z,12.10
2023-02-22T19:45:25.530Z,12.10
2023-02-22T19:48:10.908Z,10.60
2023-02-22T19:51:01.758Z,10.10
2023-02-22T19:53:46.976Z,10.60
2023-02-22T19:56:34.548Z,12.70
2023-02-22T19:59:23.032Z,11.00
2023-02-22T20:02:10.408Z,9.90
2023-02-22T20:04:55.508Z,10.60
2023-02-22T20:07:40.670Z,9.80
2023-02-22T20:10:26.550Z,8.90
2023-02-22T20:13:11.637Z,8.70
2023-02-22T20:15:56.628Z,8.80
2023-02-22T20:18:45.848Z,8.00
2023-02-22T20:21:33.425Z,10.70
2023-02-22T20:24:18.591Z,9.30
2023-02-22T20:27:03.732Z,10.20
2023-02-22T20:29:48.839Z,8.50
2023-02-22T20:32:34.809Z,11.20
2023-02-22T20:35:20.574Z,11.10
2023-02-22T20:38:06.112Z,12.20
2023-02-22T20:40:51.447Z,25.30
2023-02-22T20:43:36.667Z,9.40
2023-02-22T20:46:24.098Z,8.70
2023-02-22T20:49:12.857Z,17.00
2023-02-22T20:51:58.508Z,10.30
2023-02-22T20:54:43.884Z,9.50
2023-02-22T20:57:30.086Z,7.70
2023-02-22T21:00:17.461Z,9.00
2023-02-22T21:03:02.630Z,9.40
2023-02-22T21:05:47.707Z,8.40
2023-02-22T21:08:33.071Z,7.90
2023-02-22T21:11:18.216Z,8.00
2023-02-22T21:14:03.726Z,7.70
2023-02-22T21:16:51.350Z,9.10
2023-02-22T21:19:37.675Z,7.60
2023-02-22T21:22:24.431Z,21.00
2023-02-22T21:25:10.192Z,8.60
2023-02-22T21:27:55.559Z,8.90
2023-02-22T21:30:40.660Z,9.00
2023-02-22T21:33:26.049Z,9.40
2023-02-22T21:36:15.072Z,8.40
2023-02-22T21:39:08.260Z,10.00
2023-02-22T21:41:54.913Z,8.80
2023-02-22T21:44:39.894Z,7.00
2023-02-22T21:47:25.348Z,8.50
2023-02-22T21:50:10.936Z,7.90
2023-02-22T21:52:57.351Z,8.50
2023-02-22T21:55:43.596Z,14.50
2023-02-22T21:58:30.114Z,14.60
2023-02-22T22:01:16.608Z,12.10
2023-02-22T22:04:03.320Z,7.20
2023-02-22T22:06:51.006Z,7.40
2023-02-22T22:09:40.468Z,6.10
2023-02-22T22:12:37.466Z,6.30
2023-02-22T22:15:29.509Z,6.50
2023-02-22T22:18:15.093Z,6.20
2023-02-22T22:21:06.879Z,8.30
2023-02-22T22:23:56.560Z,7.90
2023-02-22T22:26:43.428Z,9.30
2023-02-22T22:29:29.700Z,6.30
2023-02-22T22:32:15.517Z,7.20
2023-02-22T22:35:00.767Z,6.70
2023-02-22T22:37:50.429Z,7.30
2023-02-22T22:40:38.194Z,7.60
2023-02-22T22:43:23.658Z,7.20
2023-02-22T22:46:09.571Z,7.10
2023-02-22T22:48:54.848Z,7.70
2023-02-22T22:51:40.624Z,8.60
2023-02-22T22:54:25.823Z,7.50
2023-02-22T22:57:11.530Z,15.70
2023-02-22T22:59:57.382Z,7.50
2023-02-22T23:02:42.478Z,6.80
2023-02-22T23:05:28.563Z,8.00
2023-02-22T23:08:15.446Z,8.80
2023-02-22T23:11:08.401Z,8.30
2023-02-22T23:13:54.019Z,7.90
2023-02-22T23:16:39.576Z,8.00
2023-02-22T23:19:24.726Z,7.40
2023-02-22T23:22:13.218Z,6.80
2023-02-22T23:24:59.297Z,7.30
2023-02-22T23:27:45.751Z,8.30
2023-02-22T23:30:30.950Z,7.80
2023-02-22T23:33:15.954Z,7.30
2023-02-22T23:36:03.779Z,8.00
2023-02-22T23:38:49.368Z,6.80
2023-02-22T23:41:35.870Z,6.60
2023-02-22T23:44:21.546Z,7.50
2023-02-22T23:47:06.501Z,6.80
2023-02-22T23:49:51.513Z,6.10
2023-02-22T23:52:36.734Z,6.50
2023-02-22T23:55:24.497Z,6.50
2023-02-22T23:58:09.819Z,6.10
